Aviation Digital Data Service (ADDS)

Output produced by METARs form (0602 UTC 25 June 2018)
found at http://www.aviationweather.gov/adds/metars/
 
METAR text: KTAZ 250555Z AUTO 05003KT 10SM CLR 20/20 A2998 RMK AO2 T02010199 10266 20200 402800161
Conditions at: KTAZ (TAYLORVILLE , IL, US) observed 0555 UTC 25 June 2018
Temperature: 20.1°C (68°F)
Dewpoint: 19.9°C (68°F) [RH = 99%]
Pressure (altimeter): 29.98 inches Hg (1015.3 mb)
Winds: from the NE (50 degrees) at 3 MPH (3 knots; 1.6 m/s)
Visibility: 10 or more miles (16+ km)
Ceiling: at least 12,000 feet AGL
Clouds: sky clear below 12,000 feet AGL
Weather: automated observation with no human augmentation;
there may or may not be significant weather present at this time